sensor_id;sensor_type;location;lat;lon;timestamp;pressure;altitude;pressure_sealevel;temperature;humidity
32320;BME280;19080;51.750;5.888;2023-03-21T00:00:28;101456.41;;;11.05;100.00
32320;BME280;19080;51.750;5.888;2023-03-21T00:02:55;101415.03;;;10.77;100.00
32320;BME280;19080;51.750;5.888;2023-03-21T00:05:22;101408.47;;;10.61;100.00
32320;BME280;19080;51.750;5.888;2023-03-21T00:07:49;101450.63;;;10.85;100.00
32320;BME280;19080;51.750;5.888;2023-03-21T00:10:16;101460.41;;;10.86;100.00
32320;BME280;19080;51.750;5.888;2023-03-21T00:12:58;101441.59;;;10.77;100.00
32320;BME280;19080;51.750;5.888;2023-03-21T00:15:25;101438.78;;;10.71;100.00
32320;BME280;19080;51.750;5.888;2023-03-21T00:18:03;101471.25;;;10.95;100.00
32320;BME280;19080;51.750;5.888;2023-03-21T00:20:32;101470.25;;;10.90;100.00
32320;BME280;19080;51.750;5.888;2023-03-21T00:23:03;101438.72;;;10.68;100.00
32320;BME280;19080;51.750;5.888;2023-03-21T00:25:30;101410.13;;;10.56;100.00
32320;BME280;19080;51.750;5.888;2023-03-21T00:27:58;101449.47;;;10.74;100.00
32320;BME280;19080;51.750;5.888;2023-03-21T00:30:33;101437.84;;;10.69;100.00
32320;BME280;19080;51.750;5.888;2023-03-21T00:33:00;101363.41;;;10.27;100.00
32320;BME280;19080;51.750;5.888;2023-03-21T00:35:45;101367.94;;;10.31;100.00
32320;BME280;19080;51.750;5.888;2023-03-21T00:38:32;101390.53;;;10.51;100.00
32320;BME280;19080;51.750;5.888;2023-03-21T00:41:02;101362.78;;;10.37;100.00
32320;BME280;19080;51.750;5.888;2023-03-21T00:43:40;101343.94;;;10.26;100.00
32320;BME280;19080;51.750;5.888;2023-03-21T00:46:07;101360.97;;;10.34;100.00
32320;BME280;19080;51.750;5.888;2023-03-21T00:48:33;101408.41;;;10.58;100.00
32320;BME280;19080;51.750;5.888;2023-03-21T00:51:01;101374.38;;;10.42;100.00
32320;BME280;19080;51.750;5.888;2023-03-21T00:53:27;101329.50;;;10.15;100.00
32320;BME280;19080;51.750;5.888;2023-03-21T00:55:57;101439.94;;;10.82;100.00
32320;BME280;19080;51.750;5.888;2023-03-21T00:58:23;101381.53;;;10.44;100.00
32320;BME280;19080;51.750;5.888;2023-03-21T01:00:51;101409.44;;;10.65;100.00
32320;BME280;19080;51.750;5.888;2023-03-21T01:03:18;101425.59;;;10.74;100.00
32320;BME280;19080;51.750;5.888;2023-03-21T01:05:50;101430.09;;;10.78;100.00
32320;BME280;19080;51.750;5.888;2023-03-21T01:08:36;101320.88;;;10.22;100.00
32320;BME280;19080;51.750;5.888;2023-03-21T01:11:21;101395.19;;;10.61;100.00
32320;BME280;19080;51.750;5.888;2023-03-21T01:13:49;101345.78;;;10.29;100.00
32320;BME280;19080;51.750;5.888;2023-03-21T01:16:36;101408.66;;;10.69;100.00
32320;BME280;19080;51.750;5.888;2023-03-21T01:19:05;101325.22;;;10.20;100.00
32320;BME280;19080;51.750;5.888;2023-03-21T01:21:37;101319.81;;;10.17;100.00
32320;BME280;19080;51.750;5.888;2023-03-21T01:24:04;101321.56;;;10.17;100.00
32320;BME280;19080;51.750;5.888;2023-03-21T01:26:32;101412.09;;;10.65;100.00
32320;BME280;19080;51.750;5.888;2023-03-21T01:28:58;101307.50;;;10.19;100.00
32320;BME280;19080;51.750;5.888;2023-03-21T01:31:25;101309.13;;;10.14;100.00
32320;BME280;19080;51.750;5.888;2023-03-21T01:33:52;101364.63;;;10.41;100.00
32320;BME280;19080;51.750;5.888;2023-03-21T01:36:22;101348.47;;;10.30;100.00
32320;BME280;19080;51.750;5.888;2023-03-21T01:38:54;101363.75;;;10.42;100.00
32320;BME280;19080;51.750;5.888;2023-03-21T01:44:03;101270.63;;;9.94;100.00
32320;BME280;19080;51.750;5.888;2023-03-21T01:46:41;101309.06;;;10.11;100.00
32320;BME280;19080;51.750;5.888;2023-03-21T01:49:53;101365.56;;;10.43;100.00
32320;BME280;19080;51.750;5.888;2023-03-21T01:52:50;101379.88;;;10.50;100.00
32320;BME280;19080;51.750;5.888;2023-03-21T01:55:25;101389.66;;;10.52;100.00
32320;BME280;19080;51.750;5.888;2023-03-21T01:57:56;101235.56;;;9.69;100.00
32320;BME280;19080;51.750;5.888;2023-03-21T02:00:55;101292.25;;;10.10;100.00
32320;BME280;19080;51.750;5.888;2023-03-21T02:03:31;101336.16;;;10.32;100.00
32320;BME280;19080;51.750;5.888;2023-03-21T02:06:31;101344.38;;;10.44;100.00
32320;BME280;19080;51.750;5.888;2023-03-21T02:09:12;101270.88;;;10.04;100.00
32320;BME280;19080;51.750;5.888;2023-03-21T02:11:40;101343.56;;;10.49;100.00
32320;BME280;19080;51.750;5.888;2023-03-21T02:14:15;101357.13;;;10.61;100.00
32320;BME280;19080;51.750;5.888;2023-03-21T02:17:30;101269.44;;;10.19;100.00
32320;BME280;19080;51.750;5.888;2023-03-21T02:28:32;101315.53;;;10.60;100.00
32320;BME280;19080;51.750;5.888;2023-03-21T02:31:23;101315.53;;;10.60;100.00
32320;BME280;19080;51.750;5.888;2023-03-21T02:39:11;101332.00;;;10.84;100.00
32320;BME280;19080;51.750;5.888;2023-03-21T02:42:01;101333.72;;;10.82;100.00
32320;BME280;19080;51.750;5.888;2023-03-21T02:44:41;101296.00;;;10.58;100.00
32320;BME280;19080;51.750;5.888;2023-03-21T02:49:51;101306.94;;;10.71;100.00
32320;BME280;19080;51.750;5.888;2023-03-21T02:52:24;101292.63;;;10.65;100.00
32320;BME280;19080;51.750;5.888;2023-03-21T02:55:19;101271.13;;;10.53;100.00
32320;BME280;19080;51.750;5.888;2023-03-21T02:57:54;101238.94;;;10.36;100.00
32320;BME280;19080;51.750;5.888;2023-03-21T03:00:29;101325.81;;;10.85;100.00
32320;BME280;19080;51.750;5.888;2023-03-21T03:02:58;101284.59;;;10.62;100.00
32320;BME280;19080;51.750;5.888;2023-03-21T03:06:07;101323.03;;;10.79;100.00
32320;BME280;19080;51.750;5.888;2023-03-21T03:09:05;101325.75;;;10.82;100.00
32320;BME280;19080;51.750;5.888;2023-03-21T03:11:35;101310.69;;;10.81;100.00
32320;BME280;19080;51.750;5.888;2023-03-21T03:26:10;101287.19;;;10.59;100.00
32320;BME280;19080;51.750;5.888;2023-03-21T03:28:42;101216.53;;;10.23;100.00
32320;BME280;19080;51.750;5.888;2023-03-21T03:31:18;101269.25;;;10.49;100.00
32320;BME280;19080;51.750;5.888;2023-03-21T03:33:53;101276.34;;;10.50;100.00
32320;BME280;19080;51.750;5.888;2023-03-21T03:36:26;101233.34;;;10.24;100.00
32320;BME280;19080;51.750;5.888;2023-03-21T03:39:04;101181.28;;;9.91;100.00
32320;BME280;19080;51.750;5.888;2023-03-21T03:41:40;101192.81;;;9.93;100.00
32320;BME280;19080;51.750;5.888;2023-03-21T03:44:31;101200.88;;;9.98;100.00
32320;BME280;19080;51.750;5.888;2023-03-21T03:49:56;101207.97;;;9.99;100.00
32320;BME280;19080;51.750;5.888;2023-03-21T03:52:42;101175.81;;;9.84;100.00
32320;BME280;19080;51.750;5.888;2023-03-21T03:55:24;101291.25;;;10.43;100.00
32320;BME280;19080;51.750;5.888;2023-03-21T03:57:55;101175.78;;;9.82;100.00
32320;BME280;19080;51.750;5.888;2023-03-21T04:00:22;101284.00;;;10.34;100.00
32320;BME280;19080;51.750;5.888;2023-03-21T04:02:50;101190.78;;;9.82;100.00
32320;BME280;19080;51.750;5.888;2023-03-21T04:05:20;101201.38;;;9.82;100.00
32320;BME280;19080;51.750;5.888;2023-03-21T04:07:48;101273.19;;;10.25;100.00
32320;BME280;19080;51.750;5.888;2023-03-21T04:10:20;101215.78;;;9.93;100.00
32320;BME280;19080;51.750;5.888;2023-03-21T04:12:48;101154.06;;;9.61;100.00
32320;BME280;19080;51.750;5.888;2023-03-21T04:15:43;101284.78;;;10.30;100.00
32320;BME280;19080;51.750;5.888;2023-03-21T04:18:14;101193.44;;;9.82;100.00
32320;BME280;19080;51.750;5.888;2023-03-21T04:20:41;101160.28;;;9.63;100.00
32320;BME280;19080;51.750;5.888;2023-03-21T04:23:11;101264.31;;;10.25;100.00
32320;BME280;19080;51.750;5.888;2023-03-21T04:25:42;101214.00;;;9.92;100.00
32320;BME280;19080;51.750;5.888;2023-03-21T04:28:25;101234.66;;;10.05;100.00
32320;BME280;19080;51.750;5.888;2023-03-21T04:31:21;101248.91;;;10.10;100.00
32320;BME280;19080;51.750;5.888;2023-03-21T04:34:04;101275.84;;;10.25;100.00
32320;BME280;19080;51.750;5.888;2023-03-21T04:36:37;101233.78;;;10.06;100.00
32320;BME280;19080;51.750;5.888;2023-03-21T04:39:06;101231.00;;;10.00;100.00
32320;BME280;19080;51.750;5.888;2023-03-21T04:41:39;101239.06;;;10.04;100.00
32320;BME280;19080;51.750;5.888;2023-03-21T04:44:06;101268.75;;;10.24;100.00
32320;BME280;19080;51.750;5.888;2023-03-21T04:46:35;101243.69;;;10.13;100.00
32320;BME280;19080;51.750;5.888;2023-03-21T04:49:02;101264.28;;;10.23;100.00
32320;BME280;19080;51.750;5.888;2023-03-21T04:51:29;101228.44;;;10.04;100.00
32320;BME280;19080;51.750;5.888;2023-03-21T04:53:56;101225.91;;;10.09;100.00
32320;BME280;19080;51.750;5.888;2023-03-21T04:56:27;101220.31;;;9.97;100.00
32320;BME280;19080;51.750;5.888;2023-03-21T04:59:06;101170.00;;;9.62;100.00
32320;BME280;19080;51.750;5.888;2023-03-21T05:01:34;101222.88;;;9.94;100.00
32320;BME280;19080;51.750;5.888;2023-03-21T05:04:03;101136.81;;;9.42;100.00
32320;BME280;19080;51.750;5.888;2023-03-21T05:06:33;101169.84;;;9.56;100.00
32320;BME280;19080;51.750;5.888;2023-03-21T05:09:00;101222.75;;;9.88;100.00
32320;BME280;19080;51.750;5.888;2023-03-21T05:11:33;101199.38;;;9.71;100.00
32320;BME280;19080;51.750;5.888;2023-03-21T05:14:08;101255.78;;;10.02;100.00
32320;BME280;19080;51.750;5.888;2023-03-21T05:16:35;101253.09;;;10.00;100.00
32320;BME280;19080;51.750;5.888;2023-03-21T05:19:04;101223.69;;;9.90;100.00
32320;BME280;19080;51.750;5.888;2023-03-21T05:21:35;101162.69;;;9.52;100.00
32320;BME280;19080;51.750;5.888;2023-03-21T05:24:18;101236.22;;;9.97;100.00
32320;BME280;19080;51.750;5.888;2023-03-21T05:26:46;101179.75;;;9.63;100.00
32320;BME280;19080;51.750;5.888;2023-03-21T05:29:18;101199.47;;;9.76;100.00
32320;BME280;19080;51.750;5.888;2023-03-21T05:31:51;101203.06;;;9.78;100.00
32320;BME280;19080;51.750;5.888;2023-03-21T05:34:18;101184.31;;;9.70;100.00
32320;BME280;19080;51.750;5.888;2023-03-21T05:36:45;101127.16;;;9.44;100.00
32320;BME280;19080;51.750;5.888;2023-03-21T05:39:12;101181.75;;;9.73;100.00
32320;BME280;19080;51.750;5.888;2023-03-21T05:41:45;101216.88;;;10.01;100.00
32320;BME280;19080;51.750;5.888;2023-03-21T05:44:12;101225.84;;;10.06;100.00
32320;BME280;19080;51.750;5.888;2023-03-21T05:46:39;101124.84;;;9.58;100.00
32320;BME280;19080;51.750;5.888;2023-03-21T05:49:05;101132.13;;;9.68;100.00
32320;BME280;19080;51.750;5.888;2023-03-21T05:51:32;101213.56;;;10.11;100.00
32320;BME280;19080;51.750;5.888;2023-03-21T05:54:00;101218.94;;;10.14;100.00
32320;BME280;19080;51.750;5.888;2023-03-21T05:56:26;101192.06;;;9.99;100.00
32320;BME280;19080;51.750;5.888;2023-03-21T05:58:57;101200.25;;;10.08;100.00
32320;BME280;19080;51.750;5.888;2023-03-21T06:01:24;101202.97;;;10.11;100.00
32320;BME280;19080;51.750;5.888;2023-03-21T06:04:06;101208.25;;;10.11;100.00
32320;BME280;19080;51.750;5.888;2023-03-21T06:06:34;101165.34;;;9.90;100.00
32320;BME280;19080;51.750;5.888;2023-03-21T06:09:02;101184.28;;;10.06;100.00
32320;BME280;19080;51.750;5.888;2023-03-21T06:11:33;101225.59;;;10.33;100.00
32320;BME280;19080;51.750;5.888;2023-03-21T06:14:19;101184.38;;;10.09;100.00
32320;BME280;19080;51.750;5.888;2023-03-21T06:17:04;101114.75;;;9.81;100.00
32320;BME280;19080;51.750;5.888;2023-03-21T06:19:33;101190.91;;;10.24;100.00
32320;BME280;19080;51.750;5.888;2023-03-21T06:22:05;101137.31;;;10.01;100.00
32320;BME280;19080;51.750;5.888;2023-03-21T06:24:34;101158.88;;;10.16;100.00
32320;BME280;19080;51.750;5.888;2023-03-21T06:27:01;101201.97;;;10.47;100.00
32320;BME280;19080;51.750;5.888;2023-03-21T06:29:40;101227.13;;;10.64;100.00
32320;BME280;19080;51.750;5.888;2023-03-21T06:32:06;101234.19;;;10.63;100.00
32320;BME280;19080;51.750;5.888;2023-03-21T06:34:33;101193.94;;;10.43;100.00
32320;BME280;19080;51.750;5.888;2023-03-21T06:37:00;101192.44;;;10.56;100.00
32320;BME280;19080;51.750;5.888;2023-03-21T06:39:30;101202.31;;;10.62;100.00
32320;BME280;19080;51.750;5.888;2023-03-21T06:41:59;101195.16;;;10.59;100.00
32320;BME280;19080;51.750;5.888;2023-03-21T06:44:26;101120.06;;;10.20;100.00
32320;BME280;19080;51.750;5.888;2023-03-21T06:46:59;101128.22;;;10.29;100.00
32320;BME280;19080;51.750;5.888;2023-03-21T06:49:26;101211.47;;;10.77;100.00
32320;BME280;19080;51.750;5.888;2023-03-21T06:51:56;101145.31;;;10.44;100.00
32320;BME280;19080;51.750;5.888;2023-03-21T06:54:23;101149.03;;;10.53;100.00
32320;BME280;19080;51.750;5.888;2023-03-21T06:56:57;101221.47;;;10.91;100.00
32320;BME280;19080;51.750;5.888;2023-03-21T06:59:28;101195.75;;;10.88;100.00
32320;BME280;19080;51.750;5.888;2023-03-21T07:02:09;101144.84;;;10.65;100.00
32320;BME280;19080;51.750;5.888;2023-03-21T07:04:54;101120.72;;;10.53;100.00
32320;BME280;19080;51.750;5.888;2023-03-21T07:07:25;101215.69;;;11.12;100.00
32320;BME280;19080;51.750;5.888;2023-03-21T07:09:52;101116.59;;;10.67;100.00
32320;BME280;19080;51.750;5.888;2023-03-21T07:12:19;101216.03;;;11.30;100.00
32320;BME280;19080;51.750;5.888;2023-03-21T07:15:21;101139.13;;;10.89;100.00
32320;BME280;19080;51.750;5.888;2023-03-21T07:17:48;101197.38;;;11.27;100.00
32320;BME280;19080;51.750;5.888;2023-03-21T07:20:15;101202.97;;;11.42;100.00
32320;BME280;19080;51.750;5.888;2023-03-21T07:22:42;101217.19;;;11.46;100.00
32320;BME280;19080;51.750;5.888;2023-03-21T07:25:09;101144.88;;;11.14;100.00
32320;BME280;19080;51.750;5.888;2023-03-21T07:27:39;101219.13;;;11.54;100.00
32320;BME280;19080;51.750;5.888;2023-03-21T07:30:08;101161.19;;;11.35;100.00
32320;BME280;19080;51.750;5.888;2023-03-21T07:32:35;101181.03;;;11.55;100.00
32320;BME280;19080;51.750;5.888;2023-03-21T07:35:09;101244.53;;;11.88;100.00
32320;BME280;19080;51.750;5.888;2023-03-21T07:37:36;101174.84;;;11.56;100.00
32320;BME280;19080;51.750;5.888;2023-03-21T07:40:04;101151.41;;;11.32;100.00
32320;BME280;19080;51.750;5.888;2023-03-21T07:42:40;101226.41;;;11.66;100.00
32320;BME280;19080;51.750;5.888;2023-03-21T07:45:09;101206.59;;;11.47;100.00
32320;BME280;19080;51.750;5.888;2023-03-21T07:47:36;101224.38;;;11.51;100.00
32320;BME280;19080;51.750;5.888;2023-03-21T07:50:03;101176.81;;;11.17;100.00
32320;BME280;19080;51.750;5.888;2023-03-21T07:52:30;101230.28;;;11.35;100.00
32320;BME280;19080;51.750;5.888;2023-03-21T07:54:57;101221.19;;;11.22;100.00
32320;BME280;19080;51.750;5.888;2023-03-21T07:57:24;101146.88;;;10.79;100.00
32320;BME280;19080;51.750;5.888;2023-03-21T07:59:51;101244.41;;;11.31;100.00
32320;BME280;19080;51.750;5.888;2023-03-21T08:02:18;101228.13;;;11.14;100.00
32320;BME280;19080;51.750;5.888;2023-03-21T08:04:44;101181.63;;;10.89;100.00
32320;BME280;19080;51.750;5.888;2023-03-21T08:07:11;101173.63;;;10.88;100.00
32320;BME280;19080;51.750;5.888;2023-03-21T08:09:38;101253.13;;;11.24;100.00
32320;BME280;19080;51.750;5.888;2023-03-21T08:12:05;101231.59;;;11.10;100.00
32320;BME280;19080;51.750;5.888;2023-03-21T08:14:34;101176.31;;;10.89;100.00
32320;BME280;19080;51.750;5.888;2023-03-21T08:17:02;101165.47;;;10.79;100.00
32320;BME280;19080;51.750;5.888;2023-03-21T08:19:29;101227.25;;;11.14;100.00
32320;BME280;19080;51.750;5.888;2023-03-21T08:21:56;101220.94;;;11.08;100.00
32320;BME280;19080;51.750;5.888;2023-03-21T08:24:27;101149.50;;;10.77;100.00
32320;BME280;19080;51.750;5.888;2023-03-21T08:26:54;101160.47;;;10.95;100.00
32320;BME280;19080;51.750;5.888;2023-03-21T08:29:21;101219.72;;;11.38;100.00
32320;BME280;19080;51.750;5.888;2023-03-21T08:31:48;101137.66;;;11.06;100.00
32320;BME280;19080;51.750;5.888;2023-03-21T08:34:14;101089.47;;;10.85;100.00
32320;BME280;19080;51.750;5.888;2023-03-21T08:36:43;101133.50;;;11.21;100.00
32320;BME280;19080;51.750;5.888;2023-03-21T08:39:09;101216.91;;;11.79;100.00
32320;BME280;19080;51.750;5.888;2023-03-21T08:41:36;101167.72;;;11.54;100.00
32320;BME280;19080;51.750;5.888;2023-03-21T08:44:04;101147.25;;;11.48;100.00
32320;BME280;19080;51.750;5.888;2023-03-21T08:46:32;101125.72;;;11.33;100.00
32320;BME280;19080;51.750;5.888;2023-03-21T08:48:58;101215.25;;;11.87;100.00
32320;BME280;19080;51.750;5.888;2023-03-21T08:51:25;101194.03;;;11.90;100.00
32320;BME280;19080;51.750;5.888;2023-03-21T08:53:52;101129.03;;;11.74;100.00
32320;BME280;19080;51.750;5.888;2023-03-21T08:56:18;101181.97;;;12.16;100.00
32320;BME280;19080;51.750;5.888;2023-03-21T08:58:45;101117.84;;;11.95;100.00
32320;BME280;19080;51.750;5.888;2023-03-21T09:01:12;101112.53;;;11.95;100.00
32320;BME280;19080;51.750;5.888;2023-03-21T09:03:42;101199.16;;;12.39;100.00
32320;BME280;19080;51.750;5.888;2023-03-21T09:06:10;101136.66;;;12.07;100.00
32320;BME280;19080;51.750;5.888;2023-03-21T09:08:40;101146.50;;;12.17;100.00
32320;BME280;19080;51.750;5.888;2023-03-21T09:11:08;101164.38;;;12.27;100.00
32320;BME280;19080;51.750;5.888;2023-03-21T09:13:35;101147.38;;;12.13;100.00
32320;BME280;19080;51.750;5.888;2023-03-21T09:16:02;101200.03;;;12.38;100.00
32320;BME280;19080;51.750;5.888;2023-03-21T09:18:30;101125.97;;;12.04;100.00
32320;BME280;19080;51.750;5.888;2023-03-21T09:21:16;101170.53;;;12.22;100.00
32320;BME280;19080;51.750;5.888;2023-03-21T09:23:44;101183.16;;;12.38;100.00
32320;BME280;19080;51.750;5.888;2023-03-21T09:26:11;101169.66;;;12.24;100.00
32320;BME280;19080;51.750;5.888;2023-03-21T09:28:39;101120.56;;;11.98;100.00
32320;BME280;19080;51.750;5.888;2023-03-21T09:31:06;101174.91;;;12.18;100.00
32320;BME280;19080;51.750;5.888;2023-03-21T09:33:37;101191.78;;;12.19;100.00
32320;BME280;19080;51.750;5.888;2023-03-21T09:36:07;101179.28;;;12.15;100.00
32320;BME280;19080;51.750;5.888;2023-03-21T09:38:42;101151.66;;;12.02;100.00
32320;BME280;19080;51.750;5.888;2023-03-21T09:44:02;101183.00;;;12.27;100.00
32320;BME280;19080;51.750;5.888;2023-03-21T09:46:41;101080.28;;;11.73;100.00
32320;BME280;19080;51.750;5.888;2023-03-21T09:49:30;101166.19;;;12.30;100.00
32320;BME280;19080;51.750;5.888;2023-03-21T09:52:04;101082.19;;;11.81;100.00
32320;BME280;19080;51.750;5.888;2023-03-21T09:54:38;101169.94;;;12.46;100.00
32320;BME280;19080;51.750;5.888;2023-03-21T09:57:28;101147.97;;;12.63;100.00
32320;BME280;19080;51.750;5.888;2023-03-21T10:00:04;101128.38;;;12.58;100.00
32320;BME280;19080;51.750;5.888;2023-03-21T10:02:42;100985.81;;;12.03;100.00
32320;BME280;19080;51.750;5.888;2023-03-21T10:05:22;101143.16;;;13.11;100.00
32320;BME280;19080;51.750;5.888;2023-03-21T10:07:53;101137.06;;;13.21;100.00
32320;BME280;19080;51.750;5.888;2023-03-21T10:10:27;101121.97;;;13.23;100.00
32320;BME280;19080;51.750;5.888;2023-03-21T10:12:54;101137.19;;;13.33;100.00
32320;BME280;19080;51.750;5.888;2023-03-21T10:15:25;101146.09;;;13.38;100.00
32320;BME280;19080;51.750;5.888;2023-03-21T10:18:04;101110.41;;;13.21;100.00
32320;BME280;19080;51.750;5.888;2023-03-21T10:20:34;101138.13;;;13.41;100.00
32320;BME280;19080;51.750;5.888;2023-03-21T10:23:04;101117.63;;;13.34;100.00
32320;BME280;19080;51.750;5.888;2023-03-21T10:25:39;101065.97;;;13.18;100.00
32320;BME280;19080;51.750;5.888;2023-03-21T10:28:11;101113.31;;;13.51;100.00
32320;BME280;19080;51.750;5.888;2023-03-21T10:30:58;101055.38;;;13.26;100.00
32320;BME280;19080;51.750;5.888;2023-03-21T10:33:31;101110.69;;;13.56;100.00
32320;BME280;19080;51.750;5.888;2023-03-21T10:36:00;101123.19;;;13.61;100.00
32320;BME280;19080;51.750;5.888;2023-03-21T10:38:28;101102.66;;;13.50;100.00
32320;BME280;19080;51.750;5.888;2023-03-21T10:40:55;101090.22;;;13.53;100.00
32320;BME280;19080;51.750;5.888;2023-03-21T10:45:53;100922.66;;;12.82;100.00
32320;BME280;19080;51.750;5.888;2023-03-21T10:48:21;101110.97;;;14.01;100.00
32320;BME280;19080;51.750;5.888;2023-03-21T10:50:50;101113.63;;;14.03;100.00
32320;BME280;19080;51.750;5.888;2023-03-21T10:53:21;101110.94;;;14.00;100.00
32320;BME280;19080;51.750;5.888;2023-03-21T10:55:53;101011.06;;;13.48;100.00
32320;BME280;19080;51.750;5.888;2023-03-21T10:58:26;101098.50;;;14.00;100.00
32320;BME280;19080;51.750;5.888;2023-03-21T11:00:56;101015.59;;;13.58;100.00
32320;BME280;19080;51.750;5.888;2023-03-21T11:03:27;101078.06;;;14.04;100.00
32320;BME280;19080;51.750;5.888;2023-03-21T11:06:16;101036.16;;;13.89;100.00
32320;BME280;19080;51.750;5.888;2023-03-21T11:08:50;101022.84;;;13.97;100.00
32320;BME280;19080;51.750;5.888;2023-03-21T11:11:31;101099.63;;;14.48;100.00
32320;BME280;19080;51.750;5.888;2023-03-21T11:14:01;101072.00;;;14.42;100.00
32320;BME280;19080;51.750;5.888;2023-03-21T11:19:17;100950.84;;;14.15;100.00
32320;BME280;19080;51.750;5.888;2023-03-21T11:21:45;101076.56;;;15.02;100.00
32320;BME280;19080;51.750;5.888;2023-03-21T11:24:15;101027.56;;;14.74;100.00
32320;BME280;19080;51.750;5.888;2023-03-21T11:26:44;101116.69;;;15.22;100.00
32320;BME280;19080;51.750;5.888;2023-03-21T11:29:32;101080.16;;;15.03;100.00
32320;BME280;19080;51.750;5.888;2023-03-21T11:34:47;101106.00;;;15.16;100.00
32320;BME280;19080;51.750;5.888;2023-03-21T11:39:46;101057.88;;;15.16;100.00
32320;BME280;19080;51.750;5.888;2023-03-21T11:45:02;101095.31;;;15.31;100.00
32320;BME280;19080;51.750;5.888;2023-03-21T11:47:29;101055.19;;;15.10;100.00
32320;BME280;19080;51.750;5.888;2023-03-21T11:49:57;101031.13;;;15.16;100.00
32320;BME280;19080;51.750;5.888;2023-03-21T11:52:37;101072.09;;;15.53;100.00
32320;BME280;19080;51.750;5.888;2023-03-21T11:58:21;101056.97;;;15.24;100.00
32320;BME280;19080;51.750;5.888;2023-03-21T12:01:04;100988.38;;;14.97;100.00
32320;BME280;19080;51.750;5.888;2023-03-21T12:03:45;101081.91;;;15.63;100.00
32320;BME280;19080;51.750;5.888;2023-03-21T12:06:24;101079.19;;;15.86;100.00
32320;BME280;19080;51.750;5.888;2023-03-21T12:11:36;101035.41;;;15.99;100.00
32320;BME280;19080;51.750;5.888;2023-03-21T12:14:15;100969.47;;;15.72;100.00
32320;BME280;19080;51.750;5.888;2023-03-21T12:17:05;101061.13;;;16.35;100.00
32320;BME280;19080;51.750;5.888;2023-03-21T12:22:29;100981.94;;;15.79;100.00
32320;BME280;19080;51.750;5.888;2023-03-21T12:25:15;101048.72;;;16.20;100.00
32320;BME280;19080;51.750;5.888;2023-03-21T12:34:05;100955.16;;;15.85;100.00
32320;BME280;19080;51.750;5.888;2023-03-21T12:39:29;100939.97;;;15.90;100.00
32320;BME280;19080;51.750;5.888;2023-03-21T12:44:25;100956.84;;;16.02;100.00
32320;BME280;19080;51.750;5.888;2023-03-21T12:46:58;100921.25;;;15.87;100.00
32320;BME280;19080;51.750;5.888;2023-03-21T12:49:30;101021.72;;;16.54;100.00
32320;BME280;19080;51.750;5.888;2023-03-21T12:52:03;101011.91;;;16.54;100.00
32320;BME280;19080;51.750;5.888;2023-03-21T12:54:49;101005.69;;;16.48;100.00
32320;BME280;19080;51.750;5.888;2023-03-21T12:57:24;100990.50;;;16.47;100.00
32320;BME280;19080;51.750;5.888;2023-03-21T13:00:26;100998.56;;;16.47;100.00
32320;BME280;19080;51.750;5.888;2023-03-21T13:03:35;101013.25;;;17.13;100.00
32320;BME280;19080;51.750;5.888;2023-03-21T13:06:08;100923.31;;;16.77;100.00
32320;BME280;19080;51.750;5.888;2023-03-21T13:08:38;100979.19;;;17.24;100.00
32320;BME280;19080;51.750;5.888;2023-03-21T13:11:10;100877.09;;;16.48;100.00
32320;BME280;19080;51.750;5.888;2023-03-21T13:13:43;100999.81;;;17.19;100.00
32320;BME280;19080;51.750;5.888;2023-03-21T13:16:23;100919.88;;;16.57;100.00
32320;BME280;19080;51.750;5.888;2023-03-21T13:19:07;100902.09;;;16.48;100.00
32320;BME280;19080;51.750;5.888;2023-03-21T13:22:06;100914.66;;;16.39;100.00
32320;BME280;19080;51.750;5.888;2023-03-21T13:24:48;100919.09;;;16.44;96.81
32320;BME280;19080;51.750;5.888;2023-03-21T13:27:27;100963.38;;;16.94;95.84
32320;BME280;19080;51.750;5.888;2023-03-21T13:30:17;100921.59;;;16.70;93.79
32320;BME280;19080;51.750;5.888;2023-03-21T13:32:47;100984.69;;;17.09;97.13
32320;BME280;19080;51.750;5.888;2023-03-21T13:35:17;100990.81;;;17.25;92.71
32320;BME280;19080;51.750;5.888;2023-03-21T13:40:49;100979.31;;;17.11;93.79
32320;BME280;19080;51.750;5.888;2023-03-21T13:51:41;100865.19;;;20.05;61.92
32320;BME280;19080;51.750;5.888;2023-03-21T13:59:41;100889.03;;;19.83;61.11
32320;BME280;19080;51.750;5.888;2023-03-21T14:02:26;100929.88;;;20.04;61.59
32320;BME280;19080;51.750;5.888;2023-03-21T14:04:57;100876.31;;;20.29;58.13
32320;BME280;19080;51.750;5.888;2023-03-21T14:07:43;100912.28;;;20.65;58.47
32320;BME280;19080;51.750;5.888;2023-03-21T14:10:28;100933.88;;;19.41;60.17
32320;BME280;19080;51.750;5.888;2023-03-21T14:12:56;100926.59;;;18.45;66.51
32320;BME280;19080;51.750;5.888;2023-03-21T14:15:32;100868.13;;;17.36;72.61
32320;BME280;19080;51.750;5.888;2023-03-21T14:18:17;100919.97;;;17.40;77.28
32320;BME280;19080;51.750;5.888;2023-03-21T14:21:00;100914.72;;;17.31;84.58
32320;BME280;19080;51.750;5.888;2023-03-21T14:23:28;100880.66;;;17.36;84.86
32320;BME280;19080;51.750;5.888;2023-03-21T14:25:55;100894.22;;;17.94;84.42
32320;BME280;19080;51.750;5.888;2023-03-21T14:28:26;100799.34;;;19.38;73.18
32320;BME280;19080;51.750;5.888;2023-03-21T14:30:57;100901.19;;;20.41;62.82
32320;BME280;19080;51.750;5.888;2023-03-21T14:33:30;100892.34;;;19.96;63.56
32320;BME280;19080;51.750;5.888;2023-03-21T14:35:59;100890.50;;;19.57;65.77
32320;BME280;19080;51.750;5.888;2023-03-21T14:38:34;100827.63;;;18.71;70.21
32320;BME280;19080;51.750;5.888;2023-03-21T14:41:02;100881.63;;;18.56;70.64